sensor_id;sensor_type;location;lat;lon;timestamp;pressure;altitude;pressure_sealevel;temperature;humidity
69198;BME280;56311;50.298;8.514;2022-12-24T00:01:44;62402.38;;;-147.88;100.00
69198;BME280;56311;50.298;8.514;2022-12-24T00:04:14;62402.38;;;-147.88;100.00
69198;BME280;56311;50.298;8.514;2022-12-24T00:06:40;62402.38;;;-147.88;100.00
69198;BME280;56311;50.298;8.514;2022-12-24T00:09:08;62402.38;;;-147.88;100.00
69198;BME280;56311;50.298;8.514;2022-12-24T00:11:35;62402.38;;;-147.88;100.00
69198;BME280;56311;50.298;8.514;2022-12-24T00:14:03;62402.38;;;-147.88;100.00
69198;BME280;56311;50.298;8.514;2022-12-24T00:16:30;62402.38;;;-147.88;100.00
69198;BME280;56311;50.298;8.514;2022-12-24T00:18:57;62402.38;;;-147.88;100.00
69198;BME280;56311;50.298;8.514;2022-12-24T00:21:24;62402.38;;;-147.88;100.00
69198;BME280;56311;50.298;8.514;2022-12-24T00:23:51;62402.38;;;-147.88;100.00
69198;BME280;56311;50.298;8.514;2022-12-24T00:26:17;62402.38;;;-147.88;100.00
69198;BME280;56311;50.298;8.514;2022-12-24T00:28:44;62402.38;;;-147.88;100.00
69198;BME280;56311;50.298;8.514;2022-12-24T00:31:14;62402.38;;;-147.88;100.00
69198;BME280;56311;50.298;8.514;2022-12-24T00:33:42;62402.38;;;-147.88;100.00
69198;BME280;56311;50.298;8.514;2022-12-24T00:36:09;62402.38;;;-147.88;100.00
69198;BME280;56311;50.298;8.514;2022-12-24T00:38:37;62402.38;;;-147.88;100.00
69198;BME280;56311;50.298;8.514;2022-12-24T00:41:05;62402.38;;;-147.88;100.00
69198;BME280;56311;50.298;8.514;2022-12-24T00:43:50;62402.38;;;-147.88;100.00
69198;BME280;56311;50.298;8.514;2022-12-24T00:46:18;62402.38;;;-147.88;100.00
69198;BME280;56311;50.298;8.514;2022-12-24T00:48:46;62402.38;;;-147.88;100.00
69198;BME280;56311;50.298;8.514;2022-12-24T00:51:13;62402.38;;;-147.88;100.00
69198;BME280;56311;50.298;8.514;2022-12-24T00:53:40;62402.38;;;-147.88;100.00
69198;BME280;56311;50.298;8.514;2022-12-24T00:56:06;62402.38;;;-147.88;100.00
69198;BME280;56311;50.298;8.514;2022-12-24T00:58:33;62402.38;;;-147.88;100.00
69198;BME280;56311;50.298;8.514;2022-12-24T01:01:00;62402.38;;;-147.88;100.00
69198;BME280;56311;50.298;8.514;2022-12-24T01:03:29;62402.38;;;-147.88;100.00
69198;BME280;56311;50.298;8.514;2022-12-24T01:06:06;62402.38;;;-147.88;100.00
69198;BME280;56311;50.298;8.514;2022-12-24T01:08:34;62402.38;;;-147.88;100.00
69198;BME280;56311;50.298;8.514;2022-12-24T01:11:01;62402.38;;;-147.88;100.00
69198;BME280;56311;50.298;8.514;2022-12-24T01:13:28;62402.38;;;-147.88;100.00
69198;BME280;56311;50.298;8.514;2022-12-24T01:15:55;62402.38;;;-147.88;100.00
69198;BME280;56311;50.298;8.514;2022-12-24T01:18:22;62402.38;;;-147.88;100.00
69198;BME280;56311;50.298;8.514;2022-12-24T01:20:56;62402.38;;;-147.88;100.00
69198;BME280;56311;50.298;8.514;2022-12-24T01:23:23;62402.38;;;-147.88;100.00
69198;BME280;56311;50.298;8.514;2022-12-24T01:25:51;62402.38;;;-147.88;100.00
69198;BME280;56311;50.298;8.514;2022-12-24T01:28:18;62402.38;;;-147.88;100.00
69198;BME280;56311;50.298;8.514;2022-12-24T01:30:45;62402.38;;;-147.88;100.00
69198;BME280;56311;50.298;8.514;2022-12-24T01:33:12;62402.38;;;-147.88;100.00
69198;BME280;56311;50.298;8.514;2022-12-24T01:35:39;62402.38;;;-147.88;100.00
69198;BME280;56311;50.298;8.514;2022-12-24T01:38:07;62402.38;;;-147.88;100.00
69198;BME280;56311;50.298;8.514;2022-12-24T01:40:34;62402.38;;;-147.88;100.00
69198;BME280;56311;50.298;8.514;2022-12-24T01:43:21;62402.38;;;-147.88;100.00
69198;BME280;56311;50.298;8.514;2022-12-24T01:45:52;62402.38;;;-147.88;100.00
69198;BME280;56311;50.298;8.514;2022-12-24T01:48:24;62402.38;;;-147.88;100.00
69198;BME280;56311;50.298;8.514;2022-12-24T01:50:58;62402.38;;;-147.88;100.00
69198;BME280;56311;50.298;8.514;2022-12-24T01:53:28;62402.38;;;-147.88;100.00
69198;BME280;56311;50.298;8.514;2022-12-24T01:55:55;62402.38;;;-147.88;100.00
69198;BME280;56311;50.298;8.514;2022-12-24T01:58:24;62402.38;;;-147.88;100.00
69198;BME280;56311;50.298;8.514;2022-12-24T02:00:51;62402.38;;;-147.88;100.00
69198;BME280;56311;50.298;8.514;2022-12-24T02:03:18;62402.38;;;-147.88;100.00
69198;BME280;56311;50.298;8.514;2022-12-24T02:05:47;62402.38;;;-147.88;100.00
69198;BME280;56311;50.298;8.514;2022-12-24T02:08:16;62402.38;;;-147.88;100.00
69198;BME280;56311;50.298;8.514;2022-12-24T02:10:44;62402.38;;;-147.88;100.00
69198;BME280;56311;50.298;8.514;2022-12-24T02:13:12;62402.38;;;-147.88;100.00
69198;BME280;56311;50.298;8.514;2022-12-24T02:15:50;62402.38;;;-147.88;100.00
69198;BME280;56311;50.298;8.514;2022-12-24T02:18:25;62402.38;;;-147.88;100.00
69198;BME280;56311;50.298;8.514;2022-12-24T02:21:15;62402.38;;;-147.88;100.00
69198;BME280;56311;50.298;8.514;2022-12-24T02:24:05;62402.38;;;-147.88;100.00
69198;BME280;56311;50.298;8.514;2022-12-24T02:26:57;62402.38;;;-147.88;100.00
69198;BME280;56311;50.298;8.514;2022-12-24T02:29:51;62402.38;;;-147.88;100.00
69198;BME280;56311;50.298;8.514;2022-12-24T02:32:22;62402.38;;;-147.88;100.00
69198;BME280;56311;50.298;8.514;2022-12-24T02:34:53;62402.38;;;-147.88;100.00
69198;BME280;56311;50.298;8.514;2022-12-24T02:37:25;62402.38;;;-147.88;100.00
69198;BME280;56311;50.298;8.514;2022-12-24T02:39:56;62402.38;;;-147.88;100.00
69198;BME280;56311;50.298;8.514;2022-12-24T02:42:31;62402.38;;;-147.88;100.00
69198;BME280;56311;50.298;8.514;2022-12-24T02:45:08;62402.38;;;-147.88;100.00
69198;BME280;56311;50.298;8.514;2022-12-24T02:47:37;62402.38;;;-147.88;100.00
69198;BME280;56311;50.298;8.514;2022-12-24T02:50:07;62402.38;;;-147.88;100.00
69198;BME280;56311;50.298;8.514;2022-12-24T02:52:37;62402.38;;;-147.88;100.00
69198;BME280;56311;50.298;8.514;2022-12-24T02:55:06;62402.38;;;-147.88;100.00
69198;BME280;56311;50.298;8.514;2022-12-24T02:57:47;62402.38;;;-147.88;100.00
69198;BME280;56311;50.298;8.514;2022-12-24T03:00:21;62402.38;;;-147.88;100.00
69198;BME280;56311;50.298;8.514;2022-12-24T03:03:07;62402.38;;;-147.88;100.00
69198;BME280;56311;50.298;8.514;2022-12-24T03:05:41;62402.38;;;-147.88;100.00
69198;BME280;56311;50.298;8.514;2022-12-24T03:08:14;62402.38;;;-147.88;100.00
69198;BME280;56311;50.298;8.514;2022-12-24T03:10:48;62402.38;;;-147.88;100.00
69198;BME280;56311;50.298;8.514;2022-12-24T03:13:17;62402.38;;;-147.88;100.00
69198;BME280;56311;50.298;8.514;2022-12-24T03:15:48;62402.38;;;-147.88;100.00
69198;BME280;56311;50.298;8.514;2022-12-24T03:18:19;62402.38;;;-147.88;100.00
69198;BME280;56311;50.298;8.514;2022-12-24T03:20:52;62402.38;;;-147.88;100.00
69198;BME280;56311;50.298;8.514;2022-12-24T03:23:20;62402.38;;;-147.88;100.00
69198;BME280;56311;50.298;8.514;2022-12-24T03:25:46;62402.38;;;-147.88;100.00
69198;BME280;56311;50.298;8.514;2022-12-24T03:28:15;62402.38;;;-147.88;100.00
69198;BME280;56311;50.298;8.514;2022-12-24T03:30:45;62402.38;;;-147.88;100.00
69198;BME280;56311;50.298;8.514;2022-12-24T03:33:14;62402.38;;;-147.88;100.00
69198;BME280;56311;50.298;8.514;2022-12-24T03:35:41;62402.38;;;-147.88;100.00
69198;BME280;56311;50.298;8.514;2022-12-24T03:38:07;62402.38;;;-147.88;100.00
69198;BME280;56311;50.298;8.514;2022-12-24T03:40:34;97202.16;;;8.14;100.00
69198;BME280;56311;50.298;8.514;2022-12-24T03:43:01;97208.94;;;8.11;100.00
69198;BME280;56311;50.298;8.514;2022-12-24T03:45:28;97208.94;;;8.11;100.00
69198;BME280;56311;50.298;8.514;2022-12-24T03:47:55;97212.88;;;8.19;100.00
69198;BME280;56311;50.298;8.514;2022-12-24T03:50:23;97215.63;;;8.14;100.00
69198;BME280;56311;50.298;8.514;2022-12-24T03:52:49;97217.56;;;8.08;100.00
69198;BME280;56311;50.298;8.514;2022-12-24T03:55:16;97218.03;;;8.16;100.00
69198;BME280;56311;50.298;8.514;2022-12-24T03:57:43;97216.88;;;8.22;100.00
69198;BME280;56311;50.298;8.514;2022-12-24T04:00:11;97223.84;;;8.28;100.00
69198;BME280;56311;50.298;8.514;2022-12-24T04:02:38;62402.38;;;-147.88;100.00
69198;BME280;56311;50.298;8.514;2022-12-24T04:05:06;97228.25;;;8.19;100.00
69198;BME280;56311;50.298;8.514;2022-12-24T04:07:34;97226.34;;;8.19;100.00
69198;BME280;56311;50.298;8.514;2022-12-24T04:10:01;97237.41;;;8.18;100.00
69198;BME280;56311;50.298;8.514;2022-12-24T04:12:27;97245.28;;;8.14;100.00
69198;BME280;56311;50.298;8.514;2022-12-24T04:14:54;62402.38;;;-147.88;100.00
69198;BME280;56311;50.298;8.514;2022-12-24T04:17:21;62402.38;;;-147.88;100.00
69198;BME280;56311;50.298;8.514;2022-12-24T04:19:47;62402.38;;;-147.88;100.00
69198;BME280;56311;50.298;8.514;2022-12-24T04:22:14;62402.38;;;-147.88;100.00
69198;BME280;56311;50.298;8.514;2022-12-24T04:24:42;62402.38;;;-147.88;100.00
69198;BME280;56311;50.298;8.514;2022-12-24T04:27:09;62402.38;;;-147.88;100.00
69198;BME280;56311;50.298;8.514;2022-12-24T04:29:36;62402.38;;;-147.88;100.00
69198;BME280;56311;50.298;8.514;2022-12-24T04:32:02;62402.38;;;-147.88;100.00
69198;BME280;56311;50.298;8.514;2022-12-24T04:34:29;62402.38;;;-147.88;100.00
69198;BME280;56311;50.298;8.514;2022-12-24T04:36:56;62402.38;;;-147.88;100.00
69198;BME280;56311;50.298;8.514;2022-12-24T04:39:23;62402.38;;;-147.88;100.00
69198;BME280;56311;50.298;8.514;2022-12-24T04:41:51;62402.38;;;-147.88;100.00
69198;BME280;56311;50.298;8.514;2022-12-24T04:44:18;62402.38;;;-147.88;100.00
69198;BME280;56311;50.298;8.514;2022-12-24T04:46:44;62402.38;;;-147.88;100.00
69198;BME280;56311;50.298;8.514;2022-12-24T04:49:11;62402.38;;;-147.88;100.00
69198;BME280;56311;50.298;8.514;2022-12-24T04:51:38;62402.38;;;-147.88;100.00
69198;BME280;56311;50.298;8.514;2022-12-24T04:54:05;62402.38;;;-147.88;100.00
69198;BME280;56311;50.298;8.514;2022-12-24T04:56:32;62402.38;;;-147.88;100.00
69198;BME280;56311;50.298;8.514;2022-12-24T04:59:00;97270.84;;;8.17;100.00
69198;BME280;56311;50.298;8.514;2022-12-24T05:01:28;62402.38;;;-147.88;100.00
69198;BME280;56311;50.298;8.514;2022-12-24T05:03:57;62402.38;;;-147.88;100.00
69198;BME280;56311;50.298;8.514;2022-12-24T05:06:25;97264.03;;;8.24;100.00
69198;BME280;56311;50.298;8.514;2022-12-24T05:08:53;97274.00;;;8.24;100.00
69198;BME280;56311;50.298;8.514;2022-12-24T05:11:20;97253.25;;;8.24;100.00
69198;BME280;56311;50.298;8.514;2022-12-24T05:13:50;97264.28;;;8.28;100.00
69198;BME280;56311;50.298;8.514;2022-12-24T05:16:20;97261.34;;;8.24;100.00
69198;BME280;56311;50.298;8.514;2022-12-24T05:18:47;97259.28;;;8.16;100.00
69198;BME280;56311;50.298;8.514;2022-12-24T05:21:16;97267.34;;;8.16;100.00
69198;BME280;56311;50.298;8.514;2022-12-24T05:23:43;97269.09;;;8.02;100.00
69198;BME280;56311;50.298;8.514;2022-12-24T05:26:34;97273.09;;;8.04;100.00
69198;BME280;56311;50.298;8.514;2022-12-24T05:29:02;97263.09;;;8.10;100.00
69198;BME280;56311;50.298;8.514;2022-12-24T05:31:31;97272.38;;;7.93;100.00
69198;BME280;56311;50.298;8.514;2022-12-24T05:33:59;97274.50;;;7.96;100.00
69198;BME280;56311;50.298;8.514;2022-12-24T05:36:26;97262.69;;;7.92;100.00
69198;BME280;56311;50.298;8.514;2022-12-24T05:38:53;97277.81;;;7.88;100.00
69198;BME280;56311;50.298;8.514;2022-12-24T05:41:20;97272.69;;;7.92;100.00
69198;BME280;56311;50.298;8.514;2022-12-24T05:43:47;97278.56;;;7.94;100.00
69198;BME280;56311;50.298;8.514;2022-12-24T05:46:16;97274.75;;;8.00;100.00
69198;BME280;56311;50.298;8.514;2022-12-24T05:48:46;97279.09;;;7.96;100.00
69198;BME280;56311;50.298;8.514;2022-12-24T05:51:14;97279.06;;;8.01;100.00
69198;BME280;56311;50.298;8.514;2022-12-24T05:53:41;62402.38;;;-147.88;100.00
69198;BME280;56311;50.298;8.514;2022-12-24T05:56:10;62402.38;;;-147.88;100.00
69198;BME280;56311;50.298;8.514;2022-12-24T05:58:38;97286.28;;;8.06;100.00
69198;BME280;56311;50.298;8.514;2022-12-24T06:01:05;97277.13;;;8.07;100.00
69198;BME280;56311;50.298;8.514;2022-12-24T06:03:33;97296.28;;;8.05;100.00
69198;BME280;56311;50.298;8.514;2022-12-24T06:06:03;97278.44;;;8.09;100.00
69198;BME280;56311;50.298;8.514;2022-12-24T06:08:31;62402.38;;;-147.88;100.00
69198;BME280;56311;50.298;8.514;2022-12-24T06:11:01;62402.38;;;-147.88;100.00
69198;BME280;56311;50.298;8.514;2022-12-24T06:13:28;62402.38;;;-147.88;100.00
69198;BME280;56311;50.298;8.514;2022-12-24T06:15:56;62402.38;;;-147.88;100.00
69198;BME280;56311;50.298;8.514;2022-12-24T06:18:23;62402.38;;;-147.88;100.00
69198;BME280;56311;50.298;8.514;2022-12-24T06:20:50;62402.38;;;-147.88;100.00
69198;BME280;56311;50.298;8.514;2022-12-24T06:23:19;62402.38;;;-147.88;100.00
69198;BME280;56311;50.298;8.514;2022-12-24T06:25:47;62402.38;;;-147.88;100.00
69198;BME280;56311;50.298;8.514;2022-12-24T06:28:14;62402.38;;;-147.88;100.00
69198;BME280;56311;50.298;8.514;2022-12-24T06:30:45;62402.38;;;-147.88;100.00
69198;BME280;56311;50.298;8.514;2022-12-24T06:33:12;62402.38;;;-147.88;100.00
69198;BME280;56311;50.298;8.514;2022-12-24T06:35:40;62402.38;;;-147.88;100.00
69198;BME280;56311;50.298;8.514;2022-12-24T06:38:06;62402.38;;;-147.88;100.00
69198;BME280;56311;50.298;8.514;2022-12-24T06:40:36;62402.38;;;-147.88;100.00
69198;BME280;56311;50.298;8.514;2022-12-24T06:43:03;62402.38;;;-147.88;100.00
69198;BME280;56311;50.298;8.514;2022-12-24T06:45:30;62402.38;;;-147.88;100.00
69198;BME280;56311;50.298;8.514;2022-12-24T06:47:57;62402.38;;;-147.88;100.00
69198;BME280;56311;50.298;8.514;2022-12-24T06:50:24;62402.38;;;-147.88;100.00
69198;BME280;56311;50.298;8.514;2022-12-24T06:52:51;62402.38;;;-147.88;100.00
69198;BME280;56311;50.298;8.514;2022-12-24T06:55:17;62402.38;;;-147.88;100.00
69198;BME280;56311;50.298;8.514;2022-12-24T06:57:46;62402.38;;;-147.88;100.00
69198;BME280;56311;50.298;8.514;2022-12-24T07:00:13;62402.38;;;-147.88;100.00
69198;BME280;56311;50.298;8.514;2022-12-24T07:02:40;62402.38;;;-147.88;100.00
69198;BME280;56311;50.298;8.514;2022-12-24T07:05:07;97359.22;;;7.80;100.00
69198;BME280;56311;50.298;8.514;2022-12-24T07:07:36;62402.38;;;-147.88;100.00
69198;BME280;56311;50.298;8.514;2022-12-24T07:10:04;97352.31;;;7.63;100.00
69198;BME280;56311;50.298;8.514;2022-12-24T07:12:31;62402.38;;;-147.88;100.00
69198;BME280;56311;50.298;8.514;2022-12-24T07:14:59;62402.38;;;-147.88;100.00
69198;BME280;56311;50.298;8.514;2022-12-24T07:17:26;62402.38;;;-147.88;100.00
69198;BME280;56311;50.298;8.514;2022-12-24T07:19:53;97377.97;;;7.45;100.00
69198;BME280;56311;50.298;8.514;2022-12-24T07:22:20;97379.88;;;7.45;100.00
69198;BME280;56311;50.298;8.514;2022-12-24T07:24:46;97380.38;;;7.47;100.00
69198;BME280;56311;50.298;8.514;2022-12-24T07:27:13;97382.28;;;7.46;100.00
69198;BME280;56311;50.298;8.514;2022-12-24T07:29:40;97394.38;;;7.49;100.00
69198;BME280;56311;50.298;8.514;2022-12-24T07:32:08;97386.84;;;7.51;100.00
69198;BME280;56311;50.298;8.514;2022-12-24T07:34:35;97401.38;;;7.50;100.00
69198;BME280;56311;50.298;8.514;2022-12-24T07:37:02;97404.34;;;7.48;100.00
69198;BME280;56311;50.298;8.514;2022-12-24T07:39:29;97403.78;;;7.57;100.00
69198;BME280;56311;50.298;8.514;2022-12-24T07:41:55;97416.66;;;7.60;100.00
69198;BME280;56311;50.298;8.514;2022-12-24T07:44:22;97413.97;;;7.60;100.00
69198;BME280;56311;50.298;8.514;2022-12-24T07:46:50;97420.44;;;7.64;100.00
69198;BME280;56311;50.298;8.514;2022-12-24T07:49:18;97424.72;;;7.65;100.00
69198;BME280;56311;50.298;8.514;2022-12-24T07:51:45;62402.38;;;-147.88;100.00
69198;BME280;56311;50.298;8.514;2022-12-24T07:54:11;62402.38;;;-147.88;100.00
69198;BME280;56311;50.298;8.514;2022-12-24T07:56:38;97424.72;;;7.65;100.00
69198;BME280;56311;50.298;8.514;2022-12-24T07:59:05;97420.59;;;7.83;100.00
69198;BME280;56311;50.298;8.514;2022-12-24T08:01:32;97417.06;;;7.88;100.00
69198;BME280;56311;50.298;8.514;2022-12-24T08:03:58;97428.13;;;7.86;100.00
69198;BME280;56311;50.298;8.514;2022-12-24T08:06:27;97430.81;;;7.86;100.00
69198;BME280;56311;50.298;8.514;2022-12-24T08:08:53;97429.72;;;7.87;100.00
69198;BME280;56311;50.298;8.514;2022-12-24T08:11:20;97439.19;;;7.85;100.00
69198;BME280;56311;50.298;8.514;2022-12-24T08:13:47;97444.25;;;7.91;100.00
69198;BME280;56311;50.298;8.514;2022-12-24T08:16:14;97447.72;;;7.97;100.00
69198;BME280;56311;50.298;8.514;2022-12-24T08:18:40;97443.16;;;7.92;100.00
69198;BME280;56311;50.298;8.514;2022-12-24T08:21:08;97452.06;;;7.93;100.00
69198;BME280;56311;50.298;8.514;2022-12-24T08:23:36;97449.09;;;7.94;100.00
69198;BME280;56311;50.298;8.514;2022-12-24T08:26:05;97447.72;;;7.97;100.00
69198;BME280;56311;50.298;8.514;2022-12-24T08:28:33;97433.44;;;7.96;100.00
69198;BME280;56311;50.298;8.514;2022-12-24T08:31:00;97433.66;;;8.05;100.00
69198;BME280;56311;50.298;8.514;2022-12-24T08:33:27;97448.44;;;8.13;100.00
69198;BME280;56311;50.298;8.514;2022-12-24T08:35:55;97441.91;;;8.19;100.00
69198;BME280;56311;50.298;8.514;2022-12-24T08:41:05;97457.25;;;8.24;100.00
69198;BME280;56311;50.298;8.514;2022-12-24T08:43:32;97450.78;;;8.25;100.00
69198;BME280;56311;50.298;8.514;2022-12-24T08:46:01;97457.53;;;8.22;100.00
69198;BME280;56311;50.298;8.514;2022-12-24T08:48:29;97458.34;;;8.23;100.00
69198;BME280;56311;50.298;8.514;2022-12-24T08:50:56;97469.91;;;8.28;100.00
69198;BME280;56311;50.298;8.514;2022-12-24T08:53:23;97483.56;;;8.37;100.00
69198;BME280;56311;50.298;8.514;2022-12-24T08:55:50;97483.34;;;8.34;100.00
69198;BME280;56311;50.298;8.514;2022-12-24T08:58:23;97480.38;;;8.35;100.00
69198;BME280;56311;50.298;8.514;2022-12-24T09:00:50;97486.00;;;8.39;100.00
69198;BME280;56311;50.298;8.514;2022-12-24T09:03:16;97490.28;;;8.40;100.00
69198;BME280;56311;50.298;8.514;2022-12-24T09:05:52;97492.44;;;8.43;100.00
69198;BME280;56311;50.298;8.514;2022-12-24T09:08:19;97494.84;;;8.44;100.00
69198;BME280;56311;50.298;8.514;2022-12-24T09:10:46;97493.78;;;8.45;100.00
69198;BME280;56311;50.298;8.514;2022-12-24T09:13:13;97498.59;;;8.54;100.00
69198;BME280;56311;50.298;8.514;2022-12-24T09:15:41;97488.59;;;8.54;100.00
69198;BME280;56311;50.298;8.514;2022-12-24T09:18:08;97499.34;;;8.65;100.00
69198;BME280;56311;50.298;8.514;2022-12-24T09:20:34;97507.91;;;8.72;100.00
69198;BME280;56311;50.298;8.514;2022-12-24T09:23:01;97501.97;;;8.75;100.00
69198;BME280;56311;50.298;8.514;2022-12-24T09:25:28;97502.16;;;8.84;100.00
69198;BME280;56311;50.298;8.514;2022-12-24T09:27:57;97516.63;;;8.93;100.00
69198;BME280;56311;50.298;8.514;2022-12-24T09:30:24;97526.56;;;9.03;100.00
69198;BME280;56311;50.298;8.514;2022-12-24T09:32:52;97536.47;;;9.13;100.00
69198;BME280;56311;50.298;8.514;2022-12-24T09:35:18;97536.09;;;9.24;100.00
69198;BME280;56311;50.298;8.514;2022-12-24T09:37:45;97532.09;;;9.17;100.00
69198;BME280;56311;50.298;8.514;2022-12-24T09:40:19;97537.78;;;9.15;100.00
69198;BME280;56311;50.298;8.514;2022-12-24T09:42:50;97538.38;;;9.07;100.00
69198;BME280;56311;50.298;8.514;2022-12-24T09:45:22;97536.22;;;9.09;100.00
69198;BME280;56311;50.298;8.514;2022-12-24T09:47:54;97550.31;;;9.01;100.00
69198;BME280;56311;50.298;8.514;2022-12-24T09:50:29;97558.88;;;9.08;100.00
69198;BME280;56311;50.298;8.514;2022-12-24T09:53:00;97555.97;;;9.34;100.00
69198;BME280;56311;50.298;8.514;2022-12-24T09:55:31;97565.00;;;9.48;100.00
69198;BME280;56311;50.298;8.514;2022-12-24T09:58:01;97554.31;;;9.38;100.00
69198;BME280;56311;50.298;8.514;2022-12-24T10:00:34;97561.31;;;9.39;100.00
69198;BME280;56311;50.298;8.514;2022-12-24T10:03:11;97558.66;;;9.34;100.00
69198;BME280;56311;50.298;8.514;2022-12-24T10:05:44;97558.88;;;9.43;100.00
69198;BME280;56311;50.298;8.514;2022-12-24T10:08:19;97557.28;;;9.36;100.00
69198;BME280;56311;50.298;8.514;2022-12-24T10:10:50;97548.31;;;9.41;100.00
69198;BME280;56311;50.298;8.514;2022-12-24T10:13:28;62402.38;;;-147.88;100.00
69198;BME280;56311;50.298;8.514;2022-12-24T10:16:00;97555.25;;;9.52;100.00
69198;BME280;56311;50.298;8.514;2022-12-24T10:18:35;97568.94;;;9.61;100.00
69198;BME280;56311;50.298;8.514;2022-12-24T10:21:12;97567.00;;;9.67;100.00
69198;BME280;56311;50.298;8.514;2022-12-24T10:23:45;97579.44;;;9.63;100.00
69198;BME280;56311;50.298;8.514;2022-12-24T10:26:19;97578.75;;;9.52;100.00
69198;BME280;56311;50.298;8.514;2022-12-24T10:28:52;97578.75;;;9.52;100.00
69198;BME280;56311;50.298;8.514;2022-12-24T10:31:24;97590.63;;;9.51;100.00
69198;BME280;56311;50.298;8.514;2022-12-24T10:33:56;97573.09;;;9.48;100.00
69198;BME280;56311;50.298;8.514;2022-12-24T10:36:27;97579.66;;;9.42;100.00
69198;BME280;56311;50.298;8.514;2022-12-24T10:38:55;97593.75;;;9.34;100.00
69198;BME280;56311;50.298;8.514;2022-12-24T10:41:24;97585.09;;;9.37;100.00
69198;BME280;56311;50.298;8.514;2022-12-24T10:43:52;97572.91;;;9.39;100.00
69198;BME280;56311;50.298;8.514;2022-12-24T10:46:21;97571.78;;;9.46;100.00
69198;BME280;56311;50.298;8.514;2022-12-24T10:48:52;97573.56;;;9.55;100.00
69198;BME280;56311;50.298;8.514;2022-12-24T10:51:29;97578.72;;;9.57;100.00
69198;BME280;56311;50.298;8.514;2022-12-24T10:54:04;97580.06;;;9.54;100.00
69198;BME280;56311;50.298;8.514;2022-12-24T10:56:39;97577.88;;;9.56;100.00
69198;BME280;56311;50.298;8.514;2022-12-24T10:59:24;97580.66;;;9.51;100.00
69198;BME280;56311;50.298;8.514;2022-12-24T11:01:52;97583.88;;;9.53;100.00
69198;BME280;56311;50.298;8.514;2022-12-24T11:04:22;97591.69;;;9.55;100.00
69198;BME280;56311;50.298;8.514;2022-12-24T11:06:56;97586.00;;;9.56;100.00
69198;BME280;56311;50.298;8.514;2022-12-24T11:09:26;97593.25;;;9.61;100.00
69198;BME280;56311;50.298;8.514;2022-12-24T11:11:54;97594.25;;;9.70;100.00
69198;BME280;56311;50.298;8.514;2022-12-24T11:14:21;97592.50;;;9.80;100.00
69198;BME280;56311;50.298;8.514;2022-12-24T11:16:50;97602.16;;;9.86;100.00
69198;BME280;56311;50.298;8.514;2022-12-24T11:19:24;97586.84;;;10.06;100.00
69198;BME280;56311;50.298;8.514;2022-12-24T11:21:58;97584.81;;;10.16;100.00
69198;BME280;56311;50.298;8.514;2022-12-24T11:24:27;97597.16;;;10.23;100.00
69198;BME280;56311;50.298;8.514;2022-12-24T11:27:22;97581.47;;;10.25;100.00
69198;BME280;56311;50.298;8.514;2022-12-24T11:29:50;97587.59;;;10.55;100.00
69198;BME280;56311;50.298;8.514;2022-12-24T11:32:18;97597.69;;;10.68;100.00
69198;BME280;56311;50.298;8.514;2022-12-24T11:34:45;97591.63;;;10.33;100.00
69198;BME280;56311;50.298;8.514;2022-12-24T11:37:17;97596.94;;;10.43;100.00
69198;BME280;56311;50.298;8.514;2022-12-24T11:39:48;97604.34;;;10.57;100.00
69198;BME280;56311;50.298;8.514;2022-12-24T11:42:25;97591.00;;;10.41;100.00
69198;BME280;56311;50.298;8.514;2022-12-24T11:44:55;97603.44;;;10.42;100.00
69198;BME280;56311;50.298;8.514;2022-12-24T11:47:34;97602.50;;;10.52;100.00
69198;BME280;56311;50.298;8.514;2022-12-24T11:50:20;97594.84;;;10.35;100.00
69198;BME280;56311;50.298;8.514;2022-12-24T11:52:52;97603.81;;;10.30;100.00
69198;BME280;56311;50.298;8.514;2022-12-24T11:55:29;97588.00;;;10.18;100.00
69198;BME280;56311;50.298;8.514;2022-12-24T11:58:04;97591.84;;;10.17;100.00
69198;BME280;56311;50.298;8.514;2022-12-24T12:00:31;97587.44;;;10.22;100.00
69198;BME280;56311;50.298;8.514;2022-12-24T12:03:00;97582.41;;;10.34;100.00
69198;BME280;56311;50.298;8.514;2022-12-24T12:05:31;97576.53;;;10.51;100.00
69198;BME280;56311;50.298;8.514;2022-12-24T12:08:07;97585.13;;;10.34;100.00
69198;BME280;56311;50.298;8.514;2022-12-24T12:10:38;97576.19;;;10.14;100.00
69198;BME280;56311;50.298;8.514;2022-12-24T12:13:11;97583.91;;;10.02;100.00
69198;BME280;56311;50.298;8.514;2022-12-24T12:15:44;97580.78;;;9.90;100.00
69198;BME280;56311;50.298;8.514;2022-12-24T12:18:14;97574.00;;;9.92;100.00
69198;BME280;56311;50.298;8.514;2022-12-24T12:20:43;97585.69;;;9.87;100.00
69198;BME280;56311;50.298;8.514;2022-12-24T12:23:15;97571.34;;;9.87;100.00
69198;BME280;56311;50.298;8.514;2022-12-24T12:25:49;97577.81;;;9.91;100.00
69198;BME280;56311;50.298;8.514;2022-12-24T12:28:20;97578.50;;;10.02;100.00
69198;BME280;56311;50.298;8.514;2022-12-24T12:30:56;97574.97;;;10.01;100.00
69198;BME280;56311;50.298;8.514;2022-12-24T12:33:30;97581.06;;;10.12;100.00
69198;BME280;56311;50.298;8.514;2022-12-24T12:36:01;97591.84;;;10.17;100.00
69198;BME280;56311;50.298;8.514;2022-12-24T12:38:30;97594.94;;;10.06;100.00
69198;BME280;56311;50.298;8.514;2022-12-24T12:41:09;97604.94;;;10.05;100.00
69198;BME280;56311;50.298;8.514;2022-12-24T12:43:54;97604.94;;;10.05;100.00
69198;BME280;56311;50.298;8.514;2022-12-24T12:46:31;97587.59;;;10.30;100.00
69198;BME280;56311;50.298;8.514;2022-12-24T12:49:10;97593.88;;;10.26;100.00
69198;BME280;56311;50.298;8.514;2022-12-24T12:51:45;97588.13;;;10.32;100.00
69198;BME280;56311;50.298;8.514;2022-12-24T12:54:28;97587.38;;;10.27;100.00
69198;BME280;56311;50.298;8.514;2022-12-24T12:57:02;97588.47;;;10.26;100.00
69198;BME280;56311;50.298;8.514;2022-12-24T12:59:32;97593.88;;;10.26;100.00
69198;BME280;56311;50.298;8.514;2022-12-24T13:02:13;97594.47;;;10.23;100.00